createdAt,value
2018-01-18T00:00:48.006Z,97009.34
2018-01-18T00:03:15.550Z,97009.81
2018-01-18T00:05:43.066Z,97012.11
2018-01-18T00:08:10.702Z,97019.09
2018-01-18T00:10:38.399Z,97011.53
2018-01-18T00:13:06.135Z,97019.40
2018-01-18T00:15:33.933Z,97020.28
2018-01-18T00:18:01.551Z,97019.16
2018-01-18T00:20:29.270Z,97031.69
2018-01-18T00:22:56.888Z,97031.83
2018-01-18T00:25:24.442Z,97040.14
2018-01-18T00:27:51.970Z,97047.25
2018-01-18T00:30:19.796Z,97066.98
2018-01-18T00:32:47.313Z,97043.55
2018-01-18T00:35:14.894Z,97042.34
2018-01-18T00:37:42.550Z,97039.09
2018-01-18T00:40:10.078Z,97030.16
2018-01-18T00:42:37.784Z,97037.40
2018-01-18T00:45:05.318Z,97027.27
2018-01-18T00:47:33.023Z,97019.62
2018-01-18T00:50:00.635Z,97036.02
2018-01-18T00:52:28.456Z,97037.31
2018-01-18T00:54:55.998Z,97029.09
2018-01-18T00:57:23.695Z,97033.21
2018-01-18T00:59:51.234Z,97054.69
2018-01-18T01:02:18.759Z,97023.59
2018-01-18T01:04:46.334Z,97016.10
2018-01-18T01:07:13.874Z,97008.13
2018-01-18T01:09:41.394Z,97027.30
2018-01-18T01:12:08.999Z,97033.72
2018-01-18T01:14:36.582Z,97036.37
2018-01-18T01:17:04.142Z,97043.06
2018-01-18T01:19:31.661Z,97054.34
2018-01-18T01:21:59.233Z,97055.69
2018-01-18T01:24:26.793Z,97046.98
2018-01-18T01:26:54.318Z,97043.72
2018-01-18T01:29:21.862Z,97042.66
2018-01-18T01:31:49.386Z,97038.39
2018-01-18T01:34:16.918Z,97037.58
2018-01-18T01:36:44.478Z,97021.25
2018-01-18T01:39:12.058Z,97046.84
2018-01-18T01:41:39.582Z,97068.67
2018-01-18T01:44:07.112Z,97077.80
2018-01-18T01:46:34.683Z,97077.88
2018-01-18T01:49:02.214Z,97079.30
2018-01-18T01:51:29.978Z,97071.33
2018-01-18T01:53:57.505Z,97087.94
2018-01-18T01:56:25.114Z,97074.36
2018-01-18T01:58:52.647Z,97075.78
2018-01-18T02:01:20.191Z,97064.58
2018-01-18T02:03:47.757Z,97071.65
2018-01-18T02:06:15.484Z,97072.01
2018-01-18T02:08:43.034Z,97085.03
2018-01-18T02:11:10.820Z,97096.91
2018-01-18T02:13:38.345Z,97099.60
2018-01-18T02:16:06.057Z,97104.08
2018-01-18T02:18:33.674Z,97113.84
2018-01-18T02:21:01.235Z,97120.94
2018-01-18T02:23:28.912Z,97122.63
2018-01-18T02:25:56.530Z,97134.59
2018-01-18T02:28:24.091Z,97152.75
2018-01-18T02:30:51.606Z,97158.76
2018-01-18T02:33:19.145Z,97158.97
2018-01-18T02:35:46.670Z,97149.31
2018-01-18T02:38:14.257Z,97167.69
2018-01-18T02:40:42.034Z,97160.94
2018-01-18T02:43:09.550Z,97177.13
2018-01-18T02:45:37.082Z,97179.04
2018-01-18T02:48:04.626Z,97187.48
2018-01-18T02:50:32.158Z,97178.34
2018-01-18T02:52:59.885Z,97176.36
2018-01-18T02:55:27.463Z,97182.71
2018-01-18T02:57:54.995Z,97192.70
2018-01-18T03:00:22.530Z,97213.73
2018-01-18T03:02:50.066Z,97199.35
2018-01-18T03:05:17.711Z,97215.03
2018-01-18T03:07:45.242Z,97216.61
2018-01-18T03:10:12.807Z,97224.19
2018-01-18T03:12:40.455Z,97221.90
2018-01-18T03:15:07.990Z,97219.87
2018-01-18T03:17:35.511Z,97208.20
2018-01-18T03:20:03.062Z,97197.58
2018-01-18T03:22:30.589Z,97190.63
2018-01-18T03:24:58.252Z,97200.07
2018-01-18T03:27:25.934Z,97198.97
2018-01-18T03:29:53.506Z,97205.46
2018-01-18T03:32:21.206Z,97224.01
2018-01-18T03:34:48.823Z,97214.84
2018-01-18T03:37:16.366Z,97228.96
2018-01-18T03:39:43.962Z,97219.87
2018-01-18T03:42:11.502Z,97229.73
2018-01-18T03:44:39.194Z,97218.78
2018-01-18T03:47:06.762Z,97254.17
2018-01-18T03:49:34.299Z,97253.68
2018-01-18T03:52:01.818Z,97273.41
2018-01-18T03:54:29.469Z,97251.58
2018-01-18T03:56:57.183Z,97266.44
2018-01-18T03:59:24.717Z,97273.80
2018-01-18T04:01:52.319Z,97276.38
2018-01-18T04:04:19.894Z,97287.87
2018-01-18T04:06:47.418Z,97304.63
2018-01-18T04:09:15.176Z,97312.86
2018-01-18T04:11:42.892Z,97315.95
2018-01-18T04:14:10.709Z,97315.83
2018-01-18T04:16:38.331Z,97339.89
2018-01-18T04:19:06.220Z,97339.27
2018-01-18T04:21:33.814Z,97346.88
2018-01-18T04:24:01.581Z,97352.82
2018-01-18T04:26:29.199Z,97353.97
2018-01-18T04:28:56.734Z,97372.59
2018-01-18T04:31:24.258Z,97362.64
2018-01-18T04:33:51.794Z,97379.37
2018-01-18T04:36:19.369Z,97361.80
2018-01-18T04:38:46.918Z,97387.70
2018-01-18T04:41:14.444Z,97389.36
2018-01-18T04:43:42.122Z,97395.05
2018-01-18T04:46:09.666Z,97394.48
2018-01-18T04:48:37.195Z,97404.30
2018-01-18T04:51:04.786Z,97443.57
2018-01-18T04:53:32.309Z,97429.43
2018-01-18T04:55:59.950Z,97432.03
2018-01-18T04:58:27.729Z,97444.92
2018-01-18T05:00:55.330Z,97436.53
2018-01-18T05:03:22.906Z,97453.06
2018-01-18T05:05:50.520Z,97475.48
2018-01-18T05:08:18.099Z,97471.31
2018-01-18T05:10:45.860Z,97490.72
2018-01-18T05:13:13.575Z,97489.31
2018-01-18T05:15:41.110Z,97486.69
2018-01-18T05:18:08.707Z,97484.36
2018-01-18T05:20:36.427Z,97499.77
2018-01-18T05:23:03.974Z,97484.27
2018-01-18T05:25:31.509Z,97482.89
2018-01-18T05:27:59.051Z,97506.92
2018-01-18T05:30:26.588Z,97505.86
2018-01-18T05:32:54.131Z,97505.08
2018-01-18T05:35:21.734Z,97511.54
2018-01-18T05:37:49.374Z,97518.98
2018-01-18T05:40:16.894Z,97522.83
2018-01-18T05:42:44.414Z,97515.68
2018-01-18T05:45:11.957Z,97535.58
2018-01-18T05:47:39.485Z,97536.37
2018-01-18T05:50:07.042Z,97543.73
2018-01-18T05:52:34.566Z,97547.27
2018-01-18T05:55:02.263Z,97537.45
2018-01-18T05:57:30.079Z,97546.41
2018-01-18T05:59:57.623Z,97556.59
2018-01-18T06:02:25.366Z,97560.67
2018-01-18T06:04:52.898Z,97559.34
2018-01-18T06:07:20.550Z,97565.26
2018-01-18T06:09:48.239Z,97570.46
2018-01-18T06:12:15.856Z,97572.17
2018-01-18T06:14:43.512Z,97570.45
2018-01-18T06:17:11.042Z,97597.23
2018-01-18T06:19:38.611Z,97613.81
2018-01-18T06:22:06.562Z,97602.30
2018-01-18T06:24:34.095Z,97602.52
2018-01-18T06:27:01.634Z,97632.98
2018-01-18T06:29:29.303Z,97637.95
2018-01-18T06:31:56.872Z,97636.03
2018-01-18T06:34:24.456Z,97650.83
2018-01-18T06:36:52.006Z,97663.64
2018-01-18T06:39:19.533Z,97676.58
2018-01-18T06:41:47.069Z,97694.00
2018-01-18T06:44:14.602Z,97688.28
2018-01-18T06:46:42.433Z,97695.64
2018-01-18T06:49:09.974Z,97715.03
2018-01-18T06:51:37.560Z,97717.68
2018-01-18T06:54:05.187Z,97724.69
2018-01-18T06:56:32.806Z,97746.13
2018-01-18T06:59:00.346Z,97744.32
2018-01-18T07:01:27.886Z,97758.17
2018-01-18T07:03:55.562Z,97760.97
2018-01-18T07:06:23.183Z,97764.27
2018-01-18T07:08:50.726Z,97770.34
2018-01-18T07:11:18.269Z,97768.61
2018-01-18T07:13:45.938Z,97793.55
2018-01-18T07:16:13.552Z,97799.22
2018-01-18T07:18:41.151Z,97804.30
2018-01-18T07:21:08.807Z,97809.97
2018-01-18T07:23:36.350Z,97791.59
2018-01-18T07:26:04.020Z,97805.84
2018-01-18T07:28:31.836Z,97801.64
2018-01-18T07:30:59.411Z,97816.75
2018-01-18T07:33:27.073Z,97811.11
2018-01-18T07:35:54.594Z,97804.75
2018-01-18T07:38:22.186Z,97834.39
2018-01-18T07:40:49.737Z,97814.84
2018-01-18T07:43:17.262Z,97832.14
2018-01-18T07:45:44.817Z,97844.59
2018-01-18T07:48:12.483Z,97845.66
2018-01-18T07:50:40.050Z,97837.45
2018-01-18T07:53:07.695Z,97851.73
2018-01-18T07:55:35.306Z,97854.70
2018-01-18T07:58:02.845Z,97861.72
2018-01-18T08:00:30.398Z,97876.91
2018-01-18T08:03:03.570Z,97873.87
2018-01-18T08:05:31.113Z,97880.27
2018-01-18T08:07:58.688Z,97889.95
2018-01-18T08:10:26.457Z,97886.87
2018-01-18T08:12:54.010Z,97907.15
2018-01-18T08:15:21.550Z,97909.46
2018-01-18T08:17:49.144Z,97909.28
2018-01-18T08:20:16.679Z,97913.52
2018-01-18T08:22:44.227Z,97924.52
2018-01-18T08:25:11.866Z,97911.84
2018-01-18T08:27:39.587Z,97919.34
2018-01-18T08:30:07.142Z,97927.82
2018-01-18T08:32:34.819Z,97929.56
2018-01-18T08:35:02.402Z,97940.66
2018-01-18T08:37:29.942Z,97949.98
2018-01-18T08:39:57.576Z,97953.36
2018-01-18T08:42:25.481Z,97964.64
2018-01-18T08:44:53.002Z,97976.16
2018-01-18T08:47:20.690Z,97995.02
2018-01-18T08:49:48.221Z,97995.88
2018-01-18T08:52:15.802Z,97987.97
2018-01-18T08:54:43.478Z,97989.14
2018-01-18T08:57:11.002Z,97988.47
2018-01-18T08:59:38.543Z,97997.82
2018-01-18T09:02:06.143Z,97993.77
2018-01-18T09:04:33.854Z,98000.97
2018-01-18T09:07:01.393Z,98005.34
2018-01-18T09:09:29.091Z,98007.42
2018-01-18T09:11:56.617Z,98004.36
2018-01-18T09:14:24.134Z,98002.70
2018-01-18T09:16:51.684Z,98013.22
2018-01-18T09:19:19.354Z,98013.63
2018-01-18T09:21:47.080Z,98011.83
2018-01-18T09:24:14.692Z,98023.56
2018-01-18T09:26:42.315Z,98030.62
2018-01-18T09:29:09.862Z,98042.19
2018-01-18T09:31:37.402Z,98035.56
2018-01-18T09:34:04.985Z,98031.47
2018-01-18T09:36:32.518Z,98045.22
2018-01-18T09:39:00.047Z,98030.02
2018-01-18T09:41:27.592Z,98050.91
2018-01-18T09:43:55.309Z,98051.63
2018-01-18T09:46:22.882Z,98040.70
2018-01-18T09:48:50.418Z,98044.34
2018-01-18T09:51:18.091Z,98031.30
2018-01-18T09:53:45.618Z,98039.68
2018-01-18T09:56:13.212Z,98045.16
2018-01-18T09:58:40.747Z,98060.43
2018-01-18T10:01:08.274Z,98055.45
2018-01-18T10:03:35.846Z,98057.28
2018-01-18T10:06:03.370Z,98069.12
2018-01-18T10:08:30.918Z,98066.92
2018-01-18T10:10:58.506Z,98089.28
2018-01-18T10:13:26.030Z,98094.38
2018-01-18T10:15:53.630Z,98077.81
2018-01-18T10:18:21.154Z,98086.62
2018-01-18T10:20:48.780Z,98083.98
2018-01-18T10:23:16.323Z,98096.52
2018-01-18T10:25:43.870Z,98090.80
2018-01-18T10:28:11.652Z,98080.10
2018-01-18T10:30:39.179Z,98086.23
2018-01-18T10:33:06.717Z,98077.70
2018-01-18T10:35:34.504Z,98076.16
2018-01-18T10:38:02.116Z,98085.03
2018-01-18T10:40:29.692Z,98089.67
2018-01-18T10:42:57.257Z,98082.55
2018-01-18T10:45:24.802Z,98103.33
2018-01-18T10:47:52.334Z,98119.92
2018-01-18T10:50:19.883Z,98103.92
2018-01-18T10:52:47.422Z,98111.89
2018-01-18T10:55:15.246Z,98104.46
2018-01-18T10:57:42.770Z,98118.28
2018-01-18T11:00:10.307Z,98125.82
2018-01-18T11:02:38.100Z,98134.50
2018-01-18T11:05:05.638Z,98141.35
2018-01-18T11:07:33.173Z,98148.11
2018-01-18T11:10:00.857Z,98152.14
2018-01-18T11:12:28.511Z,98141.43
2018-01-18T11:14:56.291Z,98144.66
2018-01-18T11:17:23.907Z,98154.95
2018-01-18T11:19:51.450Z,98132.23
2018-01-18T11:22:18.993Z,98163.17
2018-01-18T11:24:46.573Z,98154.03
2018-01-18T11:27:14.158Z,98157.27
2018-01-18T11:29:41.738Z,98172.31
2018-01-18T11:32:09.514Z,98154.36
2018-01-18T11:34:37.059Z,98155.09
2018-01-18T11:37:04.849Z,98154.71
2018-01-18T11:39:32.434Z,98153.86
2018-01-18T11:42:00.159Z,98174.91
2018-01-18T11:44:27.811Z,98177.17
2018-01-18T11:46:55.523Z,98177.91
2018-01-18T11:49:23.054Z,98188.81
2018-01-18T11:51:50.577Z,98198.12
2018-01-18T11:54:18.129Z,98184.39
2018-01-18T11:56:45.857Z,98192.67
2018-01-18T11:59:13.443Z,98188.95
2018-01-18T12:01:40.974Z,98176.73
2018-01-18T12:04:08.509Z,98192.61
2018-01-18T12:06:36.051Z,98198.75
2018-01-18T12:09:03.700Z,98215.16
2018-01-18T12:11:31.402Z,98204.14
2018-01-18T12:13:58.925Z,98228.27
2018-01-18T12:16:26.490Z,98234.15
2018-01-18T12:18:54.254Z,98246.05
2018-01-18T12:21:21.870Z,98251.31
2018-01-18T12:23:49.411Z,98279.79
2018-01-18T12:26:16.997Z,98268.59
2018-01-18T12:28:44.593Z,98273.09
2018-01-18T12:31:12.233Z,98249.79
2018-01-18T12:33:39.775Z,98270.37
2018-01-18T12:36:07.376Z,98283.27
2018-01-18T12:38:34.999Z,98282.30
2018-01-18T12:41:02.538Z,98273.45
2018-01-18T12:43:30.061Z,98281.36
2018-01-18T12:45:57.658Z,98274.77
2018-01-18T12:48:25.195Z,98275.08
2018-01-18T12:50:52.883Z,98274.55
2018-01-18T12:53:20.606Z,98291.66
2018-01-18T12:55:48.126Z,98300.15
2018-01-18T12:58:15.664Z,98283.30
2018-01-18T13:00:43.186Z,98272.78
2018-01-18T13:03:10.763Z,98293.42
2018-01-18T13:05:38.305Z,98301.30
2018-01-18T13:08:05.830Z,98316.19
2018-01-18T13:10:33.522Z,98316.21
2018-01-18T13:13:01.046Z,98313.14
2018-01-18T13:15:28.859Z,98338.56
2018-01-18T13:17:56.401Z,98337.53
2018-01-18T13:20:23.986Z,98335.40
2018-01-18T13:22:51.568Z,98343.58
2018-01-18T13:25:19.235Z,98357.15
2018-01-18T13:27:46.771Z,98359.17
2018-01-18T13:30:14.302Z,98348.38
2018-01-18T13:32:41.987Z,98362.02
2018-01-18T13:35:09.560Z,98370.61
2018-01-18T13:37:37.133Z,98374.22
2018-01-18T13:40:04.662Z,98370.41
2018-01-18T13:42:32.203Z,98369.08
2018-01-18T13:44:59.742Z,98368.38
2018-01-18T13:47:27.292Z,98370.55
2018-01-18T13:49:55.008Z,98385.64
2018-01-18T13:52:22.533Z,98375.20
2018-01-18T13:54:50.158Z,98383.65
2018-01-18T13:57:17.869Z,98387.30
2018-01-18T13:59:45.684Z,98404.42
2018-01-18T14:02:13.298Z,98418.52
2018-01-18T14:04:40.846Z,98414.34
2018-01-18T14:07:08.386Z,98432.83
2018-01-18T14:09:35.921Z,98437.66
2018-01-18T14:12:03.518Z,98440.48
2018-01-18T14:14:31.286Z,98444.06
2018-01-18T14:16:58.977Z,98447.03
2018-01-18T14:19:26.512Z,98455.05
2018-01-18T14:21:54.043Z,98458.84
2018-01-18T14:24:21.594Z,98465.30
2018-01-18T14:26:49.130Z,98462.44
2018-01-18T14:29:16.892Z,98478.81
2018-01-18T14:31:44.430Z,98493.02
2018-01-18T14:34:11.966Z,98493.85
2018-01-18T14:36:39.514Z,98501.95
2018-01-18T14:39:07.110Z,98516.63
2018-01-18T14:41:34.654Z,98503.66
2018-01-18T14:44:02.186Z,98502.41
2018-01-18T14:46:29.915Z,98500.30
2018-01-18T14:48:57.465Z,98515.13
2018-01-18T14:51:24.995Z,98523.37
2018-01-18T14:53:52.562Z,98527.86
2018-01-18T14:56:20.102Z,98533.72
2018-01-18T14:58:47.657Z,98536.58
2018-01-18T15:01:15.193Z,98534.48
2018-01-18T15:03:42.771Z,98536.04
2018-01-18T15:06:10.459Z,98543.15
2018-01-18T15:08:37.982Z,98554.38
2018-01-18T15:11:05.584Z,98556.45
2018-01-18T15:13:33.212Z,98556.88
2018-01-18T15:16:01.030Z,98565.28
2018-01-18T15:18:28.557Z,98565.12
2018-01-18T15:20:56.269Z,98563.95
2018-01-18T15:23:23.846Z,98571.27
2018-01-18T15:25:51.366Z,98567.89
2018-01-18T15:28:19.118Z,98571.36
2018-01-18T15:30:46.663Z,98586.95
2018-01-18T15:33:14.237Z,98585.66
2018-01-18T15:35:41.766Z,98582.45
2018-01-18T15:38:09.370Z,98588.64
2018-01-18T15:40:36.906Z,98587.67
2018-01-18T15:43:04.539Z,98593.77
2018-01-18T15:45:32.103Z,98587.84
2018-01-18T15:47:59.861Z,98603.09
2018-01-18T15:50:27.578Z,98598.11
2018-01-18T15:52:55.101Z,98606.67
2018-01-18T15:55:22.686Z,98617.47
2018-01-18T15:57:50.503Z,98612.69
2018-01-18T16:00:18.154Z,98598.78
2018-01-18T16:02:46.069Z,98615.03
2018-01-18T16:05:13.598Z,98625.61
2018-01-18T16:07:41.138Z,98638.53
2018-01-18T16:10:08.670Z,98634.36
2018-01-18T16:12:36.262Z,98645.96
2018-01-18T16:15:03.958Z,98641.34
2018-01-18T16:17:31.487Z,98653.00
2018-01-18T16:19:59.293Z,98644.00
2018-01-18T16:22:27.011Z,98651.21
2018-01-18T16:24:54.679Z,98653.92
2018-01-18T16:27:22.449Z,98649.02
2018-01-18T16:29:49.982Z,98660.55
2018-01-18T16:32:17.540Z,98671.95
2018-01-18T16:34:45.301Z,98663.84
2018-01-18T16:37:12.879Z,98662.47
2018-01-18T16:39:40.469Z,98674.42
2018-01-18T16:42:08.258Z,98660.33
2018-01-18T16:44:35.790Z,98688.86
2018-01-18T16:47:03.325Z,98699.50
2018-01-18T16:49:30.984Z,98705.81
2018-01-18T16:51:58.554Z,98698.78
2018-01-18T16:54:26.098Z,98707.25
2018-01-18T16:56:53.674Z,98711.60
2018-01-18T16:59:21.201Z,98722.37
2018-01-18T17:01:48.899Z,98713.84
2018-01-18T17:04:16.430Z,98717.36
2018-01-18T17:06:44.073Z,98738.83
2018-01-18T17:09:11.753Z,98733.70
2018-01-18T17:11:39.277Z,98737.66
2018-01-18T17:14:06.821Z,98746.19
2018-01-18T17:16:34.357Z,98734.73
2018-01-18T17:19:01.950Z,98736.47
2018-01-18T17:21:29.739Z,98742.73
2018-01-18T17:23:57.388Z,98744.37
2018-01-18T17:26:24.941Z,98740.16
2018-01-18T17:28:52.485Z,98739.30
2018-01-18T17:31:20.110Z,98733.16
2018-01-18T17:33:47.854Z,98739.12
2018-01-18T17:36:15.562Z,98742.93
2018-01-18T17:38:43.270Z,98737.57
2018-01-18T17:41:10.841Z,98741.63
2018-01-18T17:43:38.600Z,98746.18
2018-01-18T17:46:06.270Z,98749.41
2018-01-18T17:48:33.803Z,98731.72
2018-01-18T17:51:01.378Z,98749.41
2018-01-18T17:53:28.958Z,98737.95
2018-01-18T17:55:56.486Z,98751.37
2018-01-18T17:58:24.066Z,98762.55
2018-01-18T18:00:51.732Z,98746.75
2018-01-18T18:03:19.299Z,98745.27
2018-01-18T18:05:46.850Z,98749.17
2018-01-18T18:08:14.434Z,98745.63
2018-01-18T18:10:41.991Z,98741.06
2018-01-18T18:13:09.672Z,98751.37
2018-01-18T18:15:37.245Z,98730.47
2018-01-18T18:18:04.955Z,98747.62
2018-01-18T18:20:32.562Z,98729.70
2018-01-18T18:23:00.187Z,98727.34
2018-01-18T18:25:27.717Z,98741.54
2018-01-18T18:27:55.288Z,98722.72
2018-01-18T18:30:22.833Z,98724.69
2018-01-18T18:32:50.414Z,98731.52
2018-01-18T18:35:17.942Z,98730.02
2018-01-18T18:37:45.482Z,98751.92
2018-01-18T18:40:13.029Z,98753.97
2018-01-18T18:42:40.566Z,98755.49
2018-01-18T18:45:08.412Z,98756.18
2018-01-18T18:47:35.987Z,98757.70
2018-01-18T18:50:03.610Z,98763.12
2018-01-18T18:52:31.299Z,98748.96
2018-01-18T18:54:58.845Z,98756.39
2018-01-18T18:57:26.440Z,98766.92
2018-01-18T18:59:53.974Z,98757.38
2018-01-18T19:02:21.506Z,98769.81
2018-01-18T19:04:49.077Z,98763.97
2018-01-18T19:07:16.626Z,98760.45
2018-01-18T19:09:44.190Z,98763.22
2018-01-18T19:12:11.940Z,98769.45
2018-01-18T19:14:39.514Z,98777.05
2018-01-18T19:17:07.050Z,98781.73
2018-01-18T19:19:34.609Z,98781.41
2018-01-18T19:22:02.315Z,98784.80
2018-01-18T19:24:29.845Z,98787.94
2018-01-18T19:26:57.386Z,98794.17
2018-01-18T19:29:24.918Z,98791.42
2018-01-18T19:31:52.682Z,98787.69
2018-01-18T19:34:20.302Z,98779.05
2018-01-18T19:36:47.918Z,98777.76
2018-01-18T19:39:15.458Z,98780.20
2018-01-18T19:41:42.990Z,98781.30
2018-01-18T19:44:10.540Z,98788.55
2018-01-18T19:46:38.105Z,98775.28
2018-01-18T19:49:05.770Z,98775.02
2018-01-18T19:51:33.423Z,98765.36
2018-01-18T19:54:00.958Z,98768.03
2018-01-18T19:56:28.794Z,98762.70
2018-01-18T19:58:56.367Z,98761.57
2018-01-18T20:01:24.055Z,98761.77
2018-01-18T20:03:51.578Z,98754.59
2018-01-18T20:06:19.115Z,98752.73
2018-01-18T20:08:46.747Z,98744.36
2018-01-18T20:11:14.282Z,98735.49
2018-01-18T20:13:41.846Z,98741.72
2018-01-18T20:16:09.511Z,98744.53
2018-01-18T20:18:37.113Z,98750.89
2018-01-18T20:21:04.651Z,98750.20
2018-01-18T20:23:32.248Z,98752.53
2018-01-18T20:25:59.793Z,98750.06
2018-01-18T20:28:27.339Z,98748.20
2018-01-18T20:30:54.901Z,98751.34
2018-01-18T20:33:22.478Z,98747.39
2018-01-18T20:35:50.147Z,98748.24
2018-01-18T20:38:17.860Z,98743.13
2018-01-18T20:40:45.402Z,98742.10
2018-01-18T20:43:13.065Z,98744.58
2018-01-18T20:45:40.599Z,98736.93
2018-01-18T20:48:08.146Z,98743.80
2018-01-18T20:50:35.686Z,98744.19
2018-01-18T20:53:03.467Z,98750.24
2018-01-18T20:55:31.004Z,98747.30
2018-01-18T20:57:58.538Z,98742.03
2018-01-18T21:00:26.221Z,98742.44
2018-01-18T21:02:53.758Z,98740.80
2018-01-18T21:05:21.297Z,98738.43
2018-01-18T21:07:48.977Z,98738.53
2018-01-18T21:10:16.581Z,98738.84
2018-01-18T21:12:44.310Z,98732.73
2018-01-18T21:15:11.938Z,98732.39
2018-01-18T21:17:39.495Z,98733.08
2018-01-18T21:20:07.246Z,98730.84
2018-01-18T21:22:34.842Z,98741.91
2018-01-18T21:25:02.379Z,98737.48
2018-01-18T21:27:29.958Z,98725.89
2018-01-18T21:29:57.482Z,98721.11
2018-01-18T21:32:25.014Z,98717.45
2018-01-18T21:34:52.572Z,98721.87
2018-01-18T21:37:20.258Z,98707.18
2018-01-18T21:39:47.908Z,98705.31
2018-01-18T21:42:15.513Z,98701.09
2018-01-18T21:44:43.094Z,98700.73
2018-01-18T21:47:11.540Z,98696.56
2018-01-18T21:49:39.070Z,98690.86
2018-01-18T21:52:06.613Z,98690.30
2018-01-18T21:54:34.165Z,98689.55
2018-01-18T21:57:01.833Z,98696.55
2018-01-18T21:59:29.550Z,98698.34
2018-01-18T22:01:57.144Z,98696.50
2018-01-18T22:04:24.685Z,98692.09
2018-01-18T22:06:52.214Z,98687.64
2018-01-18T22:09:19.758Z,98687.02
2018-01-18T22:11:47.290Z,98686.11
2018-01-18T22:14:14.830Z,98692.71
2018-01-18T22:16:42.362Z,98690.73
2018-01-18T22:19:09.930Z,98694.56
2018-01-18T22:21:37.473Z,98692.87
2018-01-18T22:24:05.019Z,98697.25
2018-01-18T22:26:32.562Z,98701.27
2018-01-18T22:29:00.101Z,98694.61
2018-01-18T22:31:27.655Z,98683.61
2018-01-18T22:33:55.187Z,98691.09
2018-01-18T22:36:22.758Z,98692.20
2018-01-18T22:38:50.322Z,98681.83
2018-01-18T22:41:17.850Z,98682.53
2018-01-18T22:43:45.427Z,98678.47
2018-01-18T22:46:12.974Z,98675.13
2018-01-18T22:48:40.526Z,98667.83
2018-01-18T22:51:08.070Z,98659.49
2018-01-18T22:53:35.642Z,98656.17
2018-01-18T22:56:03.177Z,98669.13
2018-01-18T22:58:30.710Z,98669.38
2018-01-18T23:00:58.262Z,98678.31
2018-01-18T23:03:25.798Z,98674.50
2018-01-18T23:05:53.360Z,98679.67
2018-01-18T23:08:20.889Z,98678.83
2018-01-18T23:10:48.454Z,98680.61
2018-01-18T23:13:15.982Z,98679.08
2018-01-18T23:15:43.510Z,98673.64
2018-01-18T23:18:11.050Z,98671.66
2018-01-18T23:20:38.730Z,98669.61
2018-01-18T23:23:06.267Z,98663.62
2018-01-18T23:25:33.794Z,98667.95
2018-01-18T23:28:01.378Z,98663.91
2018-01-18T23:30:29.103Z,98656.64
2018-01-18T23:32:56.818Z,98650.54
2018-01-18T23:35:24.350Z,98650.67
2018-01-18T23:37:51.886Z,98647.08
2018-01-18T23:40:19.485Z,98644.48
2018-01-18T23:42:47.090Z,98649.89
2018-01-18T23:45:14.907Z,98648.97
2018-01-18T23:47:42.441Z,98651.05
2018-01-18T23:50:09.998Z,98652.72
2018-01-18T23:52:37.553Z,98650.26
2018-01-18T23:55:05.279Z,98661.23
2018-01-18T23:57:32.899Z,98662.66
